Time;durP1;ratioP1;P1;durP2;ratioP2;P2;SDS_P1;SDS_P2;PMS_P1;PMS_P2;Temp;Humidity;BMP_temperature;BMP_pressure;BME280_temperature;BME280_humidity;BME280_pressure;Samples;Min_cycle;Max_cycle;Signal;HPM_P1;HPM_P2
2021/11/30 00:01:44;;;;;;;6.95;5.38;;;0.50;99.90;;;;;;5055016;28;20052;-86
2021/11/30 00:04:12;;;;;;;5.60;5.05;;;0.50;99.90;;;;;;5055433;28;20041;-86
2021/11/30 00:06:40;;;;;;;6.50;5.80;;;0.60;99.90;;;;;;5055039;28;20056;-85
2021/11/30 00:12:05;;;;;;;6.13;5.25;;;0.70;99.90;;;;;;5072918;28;20746;-86
2021/11/30 00:14:32;;;;;;;5.53;4.90;;;0.80;99.90;;;;;;5055162;28;20048;-86
2021/11/30 00:16:59;;;;;;;5.40;4.82;;;0.80;99.90;;;;;;5055233;28;20048;-86
2021/11/30 00:19:26;;;;;;;5.68;5.10;;;0.80;99.90;;;;;;5072527;28;20052;-86
2021/11/30 00:21:55;;;;;;;5.65;4.93;;;0.80;99.90;;;;;;5054878;28;20048;-86
2021/11/30 00:24:27;;;;;;;4.93;4.43;;;0.80;99.90;;;;;;5054522;28;20097;-86
2021/11/30 00:26:54;;;;;;;5.20;4.70;;;0.80;99.90;;;;;;5072952;28;20052;-87
2021/11/30 00:29:20;;;;;;;6.50;4.97;;;0.70;99.90;;;;;;5055005;28;20046;-86
2021/11/30 00:31:47;;;;;;;4.90;4.40;;;0.80;99.90;;;;;;5054771;28;20061;-86
2021/11/30 00:34:14;;;;;;;5.22;4.40;;;0.80;99.90;;;;;;5072831;28;20048;-87
2021/11/30 00:36:41;;;;;;;5.10;4.35;;;0.90;99.90;;;;;;5054948;28;20053;-86
2021/11/30 00:39:08;;;;;;;4.85;4.35;;;1.00;99.90;;;;;;5054972;28;20052;-85
2021/11/30 00:41:34;;;;;;;4.97;4.47;;;1.00;99.90;;;;;;5072374;28;20064;-86
2021/11/30 00:44:02;;;;;;;5.93;4.55;;;1.00;99.90;;;;;;5054676;28;20050;-86
2021/11/30 00:46:37;;;;;;;5.03;4.38;;;1.00;99.90;;;;;;5072386;28;20068;-86
2021/11/30 00:49:07;;;;;;;6.05;4.82;;;1.10;99.90;;;;;;5055052;28;20129;-85
2021/11/30 00:51:37;;;;;;;4.90;4.50;;;1.10;99.90;;;;;;5054790;28;20052;-86
2021/11/30 00:54:07;;;;;;;5.22;4.72;;;1.10;99.90;;;;;;5039068;28;20048;-86
2021/11/30 00:56:40;;;;;;;4.53;3.90;;;1.10;99.90;;;;;;5055269;28;20491;-86
2021/11/30 00:59:08;;;;;;;4.75;4.28;;;1.10;99.90;;;;;;5057896;28;20546;-85
2021/11/30 01:01:36;;;;;;;4.45;4.05;;;1.20;99.90;;;;;;5058812;28;20074;-85
2021/11/30 01:04:03;;;;;;;5.85;4.85;;;1.20;99.90;;;;;;5058563;28;20052;-86
2021/11/30 01:06:30;;;;;;;4.53;4.13;;;1.30;99.90;;;;;;5058444;28;20127;-85
2021/11/30 01:08:57;;;;;;;4.68;4.28;;;1.30;99.90;;;;;;5058388;28;20135;-86
2021/11/30 01:11:23;;;;;;;6.15;4.57;;;1.40;99.90;;;;;;5058301;28;20396;-86
2021/11/30 01:13:50;;;;;;;4.30;3.90;;;1.30;99.90;;;;;;5075647;28;20041;-86
2021/11/30 01:16:17;;;;;;;4.13;3.80;;;1.40;99.90;;;;;;5057784;28;20055;-85
2021/11/30 01:18:44;;;;;;;14.65;6.40;;;1.30;99.90;;;;;;5057465;28;20139;-87
2021/11/30 01:21:11;;;;;;;4.80;4.32;;;1.40;99.90;;;;;;5058087;28;20053;-86
2021/11/30 01:23:38;;;;;;;4.68;4.18;;;1.40;99.90;;;;;;5057962;28;20555;-86
2021/11/30 01:26:05;;;;;;;4.70;4.30;;;1.40;99.90;;;;;;5057889;28;20056;-86
2021/11/30 01:28:31;;;;;;;5.28;4.38;;;1.40;99.90;;;;;;5057571;28;20048;-85
2021/11/30 01:30:58;;;;;;;4.55;4.18;;;1.30;99.90;;;;;;5057789;28;20062;-85
2021/11/30 01:33:25;;;;;;;5.38;4.88;;;1.40;99.90;;;;;;5058073;28;20056;-86
2021/11/30 01:35:53;;;;;;;5.07;4.57;;;1.30;99.90;;;;;;5057794;28;20051;-86
2021/11/30 01:38:21;;;;;;;5.75;5.05;;;1.20;99.90;;;;;;5057521;28;20052;-86
2021/11/30 01:40:49;;;;;;;7.05;5.10;;;1.10;99.90;;;;;;5057641;28;20063;-86
2021/11/30 01:43:21;;;;;;;6.20;5.57;;;1.00;99.90;;;;;;5057938;28;20566;-88
2021/11/30 01:45:58;;;;;;;6.00;5.43;;;1.00;99.90;;;;;;5057872;28;20053;-86
2021/11/30 01:50:59;;;;;;;6.90;6.15;;;1.10;99.90;;;;;;5075112;28;20075;-86
2021/11/30 01:53:26;;;;;;;6.78;5.75;;;1.10;99.90;;;;;;5073064;28;20076;-86
2021/11/30 01:55:54;;;;;;;7.00;6.30;;;1.00;99.90;;;;;;5075246;28;20067;-85
2021/11/30 01:58:20;;;;;;;7.80;6.60;;;0.90;99.90;;;;;;5057417;28;20045;-87
2021/11/30 02:00:48;;;;;;;7.63;6.85;;;0.90;99.90;;;;;;5057220;28;20053;-86
2021/11/30 02:03:15;;;;;;;8.07;6.35;;;0.90;99.90;;;;;;5057244;28;20044;-87
2021/11/30 02:05:42;;;;;;;6.30;5.70;;;0.90;99.90;;;;;;5074941;28;20048;-86
2021/11/30 02:08:10;;;;;;;8.75;6.40;;;0.80;99.90;;;;;;5057520;28;20476;-86
2021/11/30 02:10:38;;;;;;;8.80;6.70;;;0.90;99.90;;;;;;5057138;28;20118;-85
2021/11/30 02:13:05;;;;;;;8.98;7.43;;;0.90;99.90;;;;;;5056942;28;20075;-88
2021/11/30 02:15:37;;;;;;;6.72;5.85;;;0.90;99.90;;;;;;5057207;28;20564;-87
2021/11/30 02:18:07;;;;;;;7.75;6.07;;;0.90;99.90;;;;;;5074727;28;20140;-87
2021/11/30 02:20:37;;;;;;;8.68;7.03;;;1.10;99.90;;;;;;5056821;28;20139;-88
2021/11/30 02:23:09;;;;;;;8.05;6.57;;;1.10;99.90;;;;;;5074717;28;20062;-87
2021/11/30 02:25:35;;;;;;;7.85;6.00;;;1.20;99.90;;;;;;5057100;28;20058;-86
2021/11/30 02:28:02;;;;;;;7.57;6.63;;;1.30;99.90;;;;;;5057165;28;20479;-88
2021/11/30 02:30:29;;;;;;;7.00;6.03;;;1.30;99.90;;;;;;5058224;28;20041;-88
2021/11/30 02:32:56;;;;;;;7.57;6.47;;;1.40;99.90;;;;;;5074357;28;20079;-87
2021/11/30 02:35:22;;;;;;;7.78;6.72;;;1.30;99.90;;;;;;5056576;28;20127;-87
2021/11/30 02:37:51;;;;;;;9.45;6.95;;;1.40;99.90;;;;;;5056672;28;20481;-87
2021/11/30 02:40:18;;;;;;;7.85;6.20;;;1.50;99.90;;;;;;5056576;28;20127;-87
2021/11/30 02:42:45;;;;;;;6.72;6.13;;;1.50;99.90;;;;;;5056373;28;20102;-88
2021/11/30 02:45:12;;;;;;;6.47;5.88;;;1.50;99.90;;;;;;5056741;28;20127;-88
2021/11/30 02:47:39;;;;;;;7.85;6.57;;;1.60;99.90;;;;;;5056751;28;20139;-88
2021/11/30 02:50:08;;;;;;;8.05;6.45;;;1.60;99.90;;;;;;5074358;28;20051;-87
2021/11/30 02:52:36;;;;;;;7.85;6.55;;;1.60;99.90;;;;;;5056745;28;20540;-87
2021/11/30 02:55:03;;;;;;;7.38;6.40;;;1.60;99.90;;;;;;5056362;28;20075;-87
2021/11/30 02:57:29;;;;;;;8.50;7.03;;;1.60;99.90;;;;;;5074377;28;20148;-86
2021/11/30 02:59:57;;;;;;;7.85;6.70;;;1.60;99.90;;;;;;5056600;28;20048;-87
2021/11/30 03:02:27;;;;;;;8.63;7.30;;;1.60;99.90;;;;;;5056050;28;20059;-87
2021/11/30 03:05:00;;;;;;;8.00;6.53;;;1.70;99.90;;;;;;5073507;28;20158;-88
2021/11/30 03:07:31;;;;;;;7.72;6.93;;;1.70;99.90;;;;;;5056808;28;20048;-87
2021/11/30 03:09:58;;;;;;;8.95;6.47;;;1.70;99.90;;;;;;5073404;28;20132;-85
2021/11/30 03:12:25;;;;;;;8.27;6.72;;;1.80;99.90;;;;;;5055906;28;20504;-87
2021/11/30 03:14:52;;;;;;;7.05;6.03;;;1.80;99.90;;;;;;5055912;28;20052;-87
2021/11/30 03:17:19;;;;;;;7.28;6.53;;;1.80;99.90;;;;;;5055931;28;20048;-89
2021/11/30 03:19:46;;;;;;;6.80;5.68;;;1.80;99.90;;;;;;5073126;28;20147;-88
2021/11/30 03:22:13;;;;;;;6.50;5.72;;;1.80;99.90;;;;;;5072951;28;20052;-88
2021/11/30 03:24:41;;;;;;;9.13;6.22;;;1.80;99.90;;;;;;5055572;28;20050;-88
2021/11/30 03:27:07;;;;;;;6.15;5.55;;;1.80;99.90;;;;;;5073449;28;20079;-86
2021/11/30 03:29:34;;;;;;;6.13;5.53;;;1.80;99.90;;;;;;5055404;28;20044;-87
2021/11/30 03:33:59;;;;;;;9.30;6.03;;;1.80;99.90;;;;;;5055997;28;20048;-86
2021/11/30 03:35:02;;;;;;;4.78;4.30;;;1.80;99.90;;;;;;5073288;28;20067;-87
2021/11/30 03:37:29;;;;;;;5.20;4.70;;;1.80;99.90;;;;;;5055505;28;20045;-87
2021/11/30 03:39:57;;;;;;;4.63;4.22;;;1.80;99.90;;;;;;5055563;28;20552;-87
2021/11/30 03:42:25;;;;;;;5.07;4.57;;;1.90;99.90;;;;;;5055324;28;20083;-87
2021/11/30 03:44:52;;;;;;;4.15;3.65;;;1.90;99.90;;;;;;5055238;28;20048;-88
2021/11/30 03:47:19;;;;;;;4.10;3.80;;;1.90;99.90;;;;;;5055565;28;20504;-87
2021/11/30 03:49:46;;;;;;;4.78;3.78;;;1.90;99.90;;;;;;5073334;28;20087;-87
2021/11/30 03:52:12;;;;;;;4.13;3.83;;;1.90;99.90;;;;;;5055523;28;20461;-87
2021/11/30 03:54:39;;;;;;;3.97;3.67;;;1.90;99.90;;;;;;5055312;28;20103;-86
2021/11/30 03:57:06;;;;;;;4.55;4.03;;;1.90;99.90;;;;;;5055847;28;20127;-86
2021/11/30 03:59:33;;;;;;;4.25;3.95;;;1.80;99.90;;;;;;5073031;28;20049;-87
2021/11/30 04:01:59;;;;;;;4.88;4.45;;;1.70;99.90;;;;;;5072858;28;20048;-86
2021/11/30 04:04:30;;;;;;;4.50;4.15;;;1.70;99.90;;;;;;5073192;28;20049;-86
2021/11/30 04:06:57;;;;;;;4.90;4.50;;;1.70;99.90;;;;;;5055269;28;20511;-87
2021/11/30 04:09:25;;;;;;;4.07;3.70;;;1.70;99.90;;;;;;5072920;28;20415;-86
2021/11/30 04:11:53;;;;;;;3.55;3.10;;;1.70;99.90;;;;;;5073318;28;20098;-87
2021/11/30 04:14:25;;;;;;;4.13;2.95;;;1.70;99.90;;;;;;5055923;28;20045;-87
2021/11/30 04:16:52;;;;;;;3.15;2.95;;;1.70;99.90;;;;;;5072929;28;20063;-86
2021/11/30 04:19:19;;;;;;;2.67;2.47;;;1.80;99.90;;;;;;5055195;28;20052;-86
2021/11/30 04:21:45;;;;;;;2.15;2.00;;;1.90;99.90;;;;;;5072897;28;20084;-86
2021/11/30 04:24:12;;;;;;;2.30;2.20;;;1.90;99.90;;;;;;5055216;28;20059;-87
2021/11/30 04:26:39;;;;;;;2.05;1.95;;;2.00;99.90;;;;;;5055277;28;20059;-86
2021/11/30 04:29:07;;;;;;;4.28;2.45;;;2.10;99.90;;;;;;5072987;28;20053;-86
2021/11/30 04:31:35;;;;;;;2.00;1.90;;;2.00;99.90;;;;;;5072961;28;20084;-86
2021/11/30 04:34:03;;;;;;;2.13;2.03;;;2.10;99.90;;;;;;5058006;28;20048;-86
2021/11/30 04:36:32;;;;;;;2.50;2.25;;;2.10;99.90;;;;;;5076567;28;20396;-86
2021/11/30 04:38:59;;;;;;;2.35;2.15;;;2.10;99.90;;;;;;5059234;28;20579;-86
2021/11/30 04:41:26;;;;;;;1.77;1.67;;;2.10;99.90;;;;;;5058778;28;20055;-86
2021/11/30 04:43:55;;;;;;;3.10;1.90;;;2.10;99.90;;;;;;5059173;28;20488;-86
2021/11/30 04:46:25;;;;;;;2.53;2.40;;;2.20;99.90;;;;;;5058907;28;20136;-87
2021/11/30 04:49:06;;;;;;;2.17;1.98;;;2.20;99.90;;;;;;5058705;28;20055;-88
2021/11/30 04:51:34;;;;;;;2.20;2.10;;;2.20;99.90;;;;;;5059045;28;20051;-87
2021/11/30 04:54:01;;;;;;;2.28;2.08;;;2.30;99.90;;;;;;5059741;28;20076;-86
2021/11/30 04:56:28;;;;;;;2.40;2.25;;;2.20;99.90;;;;;;5058869;28;20051;-87
2021/11/30 04:58:55;;;;;;;2.47;1.77;;;2.30;99.90;;;;;;5058376;28;20504;-86
2021/11/30 05:01:22;;;;;;;3.28;1.92;;;2.30;99.90;;;;;;5076048;28;20091;-87
2021/11/30 05:03:49;;;;;;;1.92;1.83;;;2.30;99.90;;;;;;5058537;28;20102;-88
2021/11/30 05:06:17;;;;;;;1.88;1.52;;;2.40;99.90;;;;;;5058600;28;20051;-85
2021/11/30 05:08:43;;;;;;;2.20;2.00;;;2.40;99.90;;;;;;5058284;28;20048;-87
2021/11/30 05:11:10;;;;;;;1.85;1.27;;;2.40;99.90;;;;;;5058754;28;20048;-86
2021/11/30 05:13:37;;;;;;;1.33;1.33;;;2.50;99.90;;;;;;5058190;28;20051;-86
2021/11/30 05:16:04;;;;;;;2.13;1.85;;;2.50;99.90;;;;;;5058063;28;20135;-86
2021/11/30 05:18:31;;;;;;;1.70;1.45;;;2.50;99.90;;;;;;5057751;28;20083;-88
2021/11/30 05:20:59;;;;;;;2.13;1.40;;;2.50;99.90;;;;;;5057712;28;20140;-87
2021/11/30 05:23:28;;;;;;;3.10;1.25;;;2.50;99.90;;;;;;5074690;28;20048;-87
2021/11/30 05:26:04;;;;;;;2.20;1.40;;;2.60;99.90;;;;;;5058359;28;20058;-88
2021/11/30 05:28:34;;;;;;;1.27;1.15;;;2.60;99.90;;;;;;5058156;28;20119;-86
2021/11/30 05:31:03;;;;;;;1.42;1.33;;;2.60;99.90;;;;;;5056552;28;20050;-85
2021/11/30 05:33:30;;;;;;;2.58;1.05;;;2.60;99.90;;;;;;5057828;28;20048;-87
2021/11/30 05:35:58;;;;;;;0.82;0.82;;;2.70;99.90;;;;;;5058139;28;20044;-87
2021/11/30 05:38:25;;;;;;;1.42;1.30;;;2.70;99.90;;;;;;5057818;28;20048;-86
2021/11/30 05:40:52;;;;;;;1.40;0.98;;;2.60;99.90;;;;;;5075412;28;20051;-87
2021/11/30 05:43:19;;;;;;;1.85;0.90;;;2.60;99.90;;;;;;5057136;28;20457;-87
2021/11/30 05:45:46;;;;;;;2.05;1.45;;;2.70;99.90;;;;;;5056586;28;20048;-85
2021/11/30 05:48:14;;;;;;;1.67;0.90;;;2.70;99.90;;;;;;5075615;28;20143;-87
2021/11/30 05:50:42;;;;;;;1.88;0.73;;;2.60;99.90;;;;;;5057716;28;20055;-86
2021/11/30 05:53:09;;;;;;;1.27;0.90;;;2.60;99.90;;;;;;5057835;28;20044;-87
2021/11/30 05:55:40;;;;;;;0.93;0.90;;;2.60;99.90;;;;;;5075181;28;20121;-87
2021/11/30 05:58:06;;;;;;;1.30;0.90;;;2.60;99.90;;;;;;5057559;28;20047;-89
2021/11/30 06:00:33;;;;;;;0.70;0.70;;;2.60;99.90;;;;;;5058533;28;20056;-87
2021/11/30 06:03:08;;;;;;;1.95;1.00;;;2.60;99.90;;;;;;5074940;28;20062;-86
2021/11/30 06:05:35;;;;;;;1.30;0.75;;;2.60;99.90;;;;;;5050063;28;20080;-88
2021/11/30 06:08:05;;;;;;;1.58;0.80;;;2.50;99.90;;;;;;5074779;28;20048;-87
2021/11/30 06:10:32;;;;;;;0.80;0.80;;;2.50;99.90;;;;;;5056608;28;20048;-86
2021/11/30 06:12:59;;;;;;;2.90;0.50;;;2.50;99.90;;;;;;5074548;28;20086;-84
2021/11/30 06:15:25;;;;;;;14.25;1.05;;;2.50;99.90;;;;;;5074481;28;20055;-86
2021/11/30 06:17:52;;;;;;;1.38;0.80;;;2.50;99.90;;;;;;5074456;28;20088;-85
2021/11/30 06:20:24;;;;;;;4.75;0.63;;;2.50;99.90;;;;;;5057667;28;20048;-85
2021/11/30 06:22:51;;;;;;;1.40;0.57;;;2.50;99.90;;;;;;5074402;28;20420;-86
2021/11/30 06:25:18;;;;;;;0.60;0.52;;;2.50;99.90;;;;;;5056812;28;20522;-86
2021/11/30 06:27:45;;;;;;;4.93;0.50;;;2.50;99.90;;;;;;5074208;28;20138;-86
2021/11/30 06:30:12;;;;;;;0.40;0.40;;;2.40;99.90;;;;;;5057071;28;20044;-89
2021/11/30 06:32:39;;;;;;;2.08;0.47;;;2.40;99.90;;;;;;5056438;28;20087;-88
2021/11/30 06:35:07;;;;;;;3.17;0.57;;;2.50;99.90;;;;;;5056722;28;20080;-88
2021/11/30 06:37:34;;;;;;;0.30;0.30;;;2.40;99.90;;;;;;5056522;28;20056;-86
2021/11/30 06:40:02;;;;;;;3.83;0.40;;;2.50;99.90;;;;;;5074478;28;20072;-87
2021/11/30 06:42:29;;;;;;;2.67;0.30;;;2.50;99.90;;;;;;5074067;28;20049;-87
2021/11/30 06:44:55;;;;;;;0.75;0.40;;;2.50;99.90;;;;;;5056575;28;20045;-88
2021/11/30 06:47:23;;;;;;;2.17;0.60;;;2.50;99.90;;;;;;5056740;28;20075;-90
2021/11/30 06:49:50;;;;;;;1.17;0.40;;;2.50;99.90;;;;;;5074197;28;20054;-87
2021/11/30 06:52:17;;;;;;;0.50;0.28;;;2.50;99.90;;;;;;5074055;28;20531;-89
2021/11/30 06:54:46;;;;;;;0.50;0.50;;;2.40;99.90;;;;;;5073566;28;20408;-87
2021/11/30 06:57:13;;;;;;;0.50;0.40;;;2.40;99.90;;;;;;5073097;28;20052;-88
2021/11/30 06:59:41;;;;;;;0.50;0.40;;;2.40;99.90;;;;;;5055855;28;20087;-87
2021/11/30 07:02:10;;;;;;;0.50;0.50;;;2.40;99.90;;;;;;5073663;28;20053;-88
2021/11/30 07:04:41;;;;;;;0.60;0.60;;;2.40;99.90;;;;;;5056226;28;20481;-89
2021/11/30 07:07:34;;;;;;;0.52;0.52;;;2.30;99.90;;;;;;5056116;28;20127;-87
2021/11/30 07:12:45;;;;;;;2.15;0.50;;;2.40;99.90;;;;;;5073678;28;20049;-86
2021/11/30 07:15:12;;;;;;;0.47;0.35;;;2.30;99.90;;;;;;5073659;28;20045;-87
2021/11/30 07:17:39;;;;;;;0.70;0.40;;;2.30;99.90;;;;;;5073436;28;20155;-86
2021/11/30 07:20:06;;;;;;;0.40;0.40;;;2.30;99.90;;;;;;5072092;28;20052;-87
2021/11/30 07:22:33;;;;;;;1.05;0.45;;;2.20;99.90;;;;;;5055725;28;20432;-85
2021/11/30 07:25:00;;;;;;;0.35;0.35;;;2.20;99.90;;;;;;5056139;28;20136;-88
2021/11/30 07:27:27;;;;;;;0.50;0.30;;;2.20;99.90;;;;;;5055945;28;20143;-86
2021/11/30 07:29:54;;;;;;;2.75;0.20;;;2.10;99.90;;;;;;5055705;28;20048;-87
2021/11/30 07:32:21;;;;;;;0.80;0.28;;;2.20;99.90;;;;;;5055799;28;20123;-87
2021/11/30 07:34:48;;;;;;;0.30;0.30;;;2.10;99.90;;;;;;5055323;28;20055;-85
2021/11/30 07:37:16;;;;;;;3.92;0.40;;;2.10;99.90;;;;;;5073048;28;20044;-86
2021/11/30 07:39:43;;;;;;;0.55;0.30;;;2.00;99.90;;;;;;5055456;28;20053;-85
2021/11/30 07:42:10;;;;;;;1.95;0.40;;;2.10;99.90;;;;;;5055656;28;20058;-87
2021/11/30 07:44:36;;;;;;;0.45;0.38;;;2.10;99.90;;;;;;5072935;28;20127;-87
2021/11/30 07:47:04;;;;;;;0.75;0.63;;;2.00;99.90;;;;;;5055778;28;20063;-86
2021/11/30 07:49:30;;;;;;;0.65;0.20;;;2.10;99.90;;;;;;5055574;28;20045;-91
2021/11/30 07:51:57;;;;;;;1.13;0.40;;;2.10;99.90;;;;;;5055925;28;20540;-87
2021/11/30 07:54:24;;;;;;;1.98;1.00;;;2.20;99.90;;;;;;5056028;28;20135;-86
2021/11/30 07:56:51;;;;;;;1.10;0.52;;;2.20;99.90;;;;;;5055667;28;20053;-88
2021/11/30 07:59:19;;;;;;;6.25;0.32;;;2.20;99.90;;;;;;5055652;28;20048;-88
2021/11/30 08:01:46;;;;;;;0.30;0.30;;;2.20;99.90;;;;;;5055792;28;20235;-88
2021/11/30 08:04:13;;;;;;;0.20;0.20;;;2.30;99.90;;;;;;5073552;28;20106;-86
2021/11/30 08:06:40;;;;;;;0.30;0.30;;;2.30;99.90;;;;;;5055949;28;20040;-87
2021/11/30 08:09:08;;;;;;;0.25;0.20;;;2.40;99.90;;;;;;5060150;28;20059;-89
2021/11/30 08:11:35;;;;;;;0.20;0.20;;;2.40;99.90;;;;;;5059651;28;20043;-87
2021/11/30 08:14:02;;;;;;;0.20;0.20;;;2.40;99.90;;;;;;5076989;28;20048;-86
2021/11/30 08:16:29;;;;;;;2.17;1.42;;;2.40;99.90;;;;;;5077389;28;20055;-86
2021/11/30 08:18:56;;;;;;;0.13;0.13;;;2.50;99.90;;;;;;5076709;28;20052;-90
2021/11/30 08:21:22;;;;;;;0.20;0.20;;;2.50;99.90;;;;;;5059281;28;20063;-85
2021/11/30 08:23:49;;;;;;;0.20;0.20;;;2.50;99.90;;;;;;5059290;28;20059;-86
2021/11/30 08:26:16;;;;;;;0.50;0.20;;;2.50;99.90;;;;;;5059590;28;20055;-87
2021/11/30 08:28:43;;;;;;;0.40;0.40;;;2.50;99.90;;;;;;5075950;28;20052;-88
2021/11/30 08:31:10;;;;;;;1.20;0.10;;;2.50;99.90;;;;;;5076334;28;20045;-88
2021/11/30 08:33:37;;;;;;;1.85;0.20;;;2.60;99.90;;;;;;5076400;28;20063;-86
2021/11/30 08:36:04;;;;;;;0.10;0.10;;;2.60;99.90;;;;;;5077513;28;20048;-87
2021/11/30 08:38:30;;;;;;;0.00;0.00;;;2.60;99.90;;;;;;5059362;28;20056;-88
2021/11/30 08:40:59;;;;;;;0.20;0.10;;;2.60;99.90;;;;;;5059641;28;20075;-86
2021/11/30 08:43:26;;;;;;;0.10;0.10;;;2.70;99.90;;;;;;5077002;28;20080;-90
2021/11/30 08:45:54;;;;;;;0.10;0.10;;;2.70;99.90;;;;;;5059230;28;20480;-86
2021/11/30 08:48:24;;;;;;;1.67;0.10;;;2.70;99.90;;;;;;5075613;28;20045;-90
2021/11/30 08:50:53;;;;;;;0.88;0.10;;;2.80;99.90;;;;;;5059439;28;20044;-88
2021/11/30 08:53:20;;;;;;;0.10;0.10;;;2.80;99.90;;;;;;5059409;28;20431;-88
2021/11/30 08:55:47;;;;;;;0.10;0.10;;;2.80;99.90;;;;;;5059319;28;20461;-87
2021/11/30 08:58:13;;;;;;;1.10;0.20;;;2.90;99.90;;;;;;5059048;28;20071;-87
2021/11/30 09:00:41;;;;;;;2.28;0.20;;;2.90;99.90;;;;;;5058665;28;20475;-88
2021/11/30 09:03:08;;;;;;;0.13;0.13;;;2.90;99.90;;;;;;5076387;28;20052;-86
2021/11/30 09:05:35;;;;;;;0.10;0.10;;;3.00;99.90;;;;;;5059032;28;20044;-88
2021/11/30 09:08:02;;;;;;;0.13;0.13;;;3.10;99.90;;;;;;5058841;28;20063;-88
2021/11/30 09:10:29;;;;;;;1.65;0.10;;;3.10;99.90;;;;;;5076377;28;20094;-88
2021/11/30 09:12:57;;;;;;;0.00;0.00;;;3.10;99.90;;;;;;5076378;28;20052;-88
2021/11/30 09:15:24;;;;;;;0.10;0.10;;;3.10;99.90;;;;;;5058582;28;20412;-86
2021/11/30 09:17:53;;;;;;;3.92;0.40;;;3.10;99.90;;;;;;5058227;28;20098;-88
2021/11/30 09:20:21;;;;;;;4.03;0.38;;;3.10;99.90;;;;;;5075528;28;20040;-90
2021/11/30 09:22:50;;;;;;;0.30;0.20;;;3.20;99.90;;;;;;5075984;28;20137;-89
2021/11/30 09:25:17;;;;;;;4.10;0.20;;;3.20;99.90;;;;;;5058233;28;20127;-86
2021/11/30 09:27:44;;;;;;;1.88;1.75;;;3.30;99.90;;;;;;5058315;28;20127;-87
2021/11/30 09:30:12;;;;;;;0.75;0.35;;;3.20;99.90;;;;;;5075775;28;20140;-89
2021/11/30 09:32:40;;;;;;;7.03;0.60;;;3.30;99.90;;;;;;5058137;28;20044;-88
2021/11/30 09:35:14;;;;;;;0.10;0.10;;;3.30;99.90;;;;;;5058594;28;20131;-88
2021/11/30 09:37:43;;;;;;;2.72;0.10;;;3.30;99.90;;;;;;5058245;28;20493;-87
2021/11/30 09:40:13;;;;;;;0.80;0.10;;;3.30;99.90;;;;;;5058129;28;20136;-87
2021/11/30 09:42:43;;;;;;;0.10;0.10;;;3.30;99.90;;;;;;5057405;28;20048;-87
2021/11/30 09:45:11;;;;;;;3.20;0.20;;;3.30;99.90;;;;;;5058224;28;20075;-87
2021/11/30 09:47:40;;;;;;;0.20;0.10;;;3.30;99.90;;;;;;5058270;28;20123;-86
2021/11/30 09:50:13;;;;;;;0.00;0.00;;;3.30;99.90;;;;;;5058337;28;20143;-87
2021/11/30 09:52:40;;;;;;;2.22;0.20;;;3.30;99.90;;;;;;5057848;28;20048;-88
2021/11/30 09:55:12;;;;;;;1.83;0.20;;;3.40;99.90;;;;;;5058074;28;20508;-87
2021/11/30 09:57:38;;;;;;;1.23;0.68;;;3.40;99.90;;;;;;5058053;28;20112;-88
2021/11/30 10:00:08;;;;;;;0.10;0.10;;;3.30;99.90;;;;;;5075051;28;20135;-88
2021/11/30 10:02:56;;;;;;;0.98;0.10;;;3.40;99.90;;;;;;5074469;28;20048;-88
2021/11/30 10:05:23;;;;;;;0.50;0.20;;;3.40;99.90;;;;;;5075397;28;20049;-87
2021/11/30 10:07:52;;;;;;;2.78;0.43;;;3.40;99.90;;;;;;5057743;28;20044;-88
2021/11/30 10:10:30;;;;;;;0.10;0.10;;;3.40;99.90;;;;;;5074827;28;20153;-87
2021/11/30 10:12:59;;;;;;;0.10;0.10;;;3.40;99.90;;;;;;5057100;28;20060;-88
2021/11/30 10:15:28;;;;;;;0.00;0.00;;;3.30;99.90;;;;;;5057247;28;20271;-88
2021/11/30 10:18:24;;;;;;;0.90;0.10;;;3.40;99.90;;;;;;5074335;28;20055;-86
2021/11/30 10:21:05;;;;;;;0.10;0.10;;;3.40;99.90;;;;;;5057221;28;20059;-87
2021/11/30 10:23:48;;;;;;;0.40;0.10;;;3.30;99.90;;;;;;5074786;28;20162;-90
2021/11/30 10:26:25;;;;;;;0.65;0.30;;;3.40;99.90;;;;;;5057131;28;20135;-90
2021/11/30 10:29:04;;;;;;;0.10;0.10;;;3.40;99.90;;;;;;5057227;28;20131;-88
2021/11/30 10:31:37;;;;;;;0.10;0.10;;;3.40;99.90;;;;;;5055735;28;20053;-91
2021/11/30 10:34:14;;;;;;;0.00;0.00;;;3.40;99.90;;;;;;5056979;28;20036;-87
2021/11/30 10:37:20;;;;;;;0.00;0.00;;;3.40;99.90;;;;;;5056557;28;20086;-89
2021/11/30 10:39:47;;;;;;;0.00;0.00;;;3.40;99.90;;;;;;5071258;28;20052;-89
2021/11/30 10:42:24;;;;;;;0.35;0.00;;;3.30;99.90;;;;;;5074525;28;20075;-88
2021/11/30 10:44:53;;;;;;;0.10;0.03;;;3.30;99.90;;;;;;5074170;28;20067;-89
2021/11/30 10:47:23;;;;;;;0.25;0.25;;;3.30;99.90;;;;;;5056229;28;20059;-89
2021/11/30 10:49:51;;;;;;;0.10;0.10;;;3.30;99.90;;;;;;5056402;28;20060;-89
2021/11/30 10:52:25;;;;;;;0.00;0.00;;;3.30;99.90;;;;;;5056271;28;20547;-86
2021/11/30 10:55:10;;;;;;;0.10;0.10;;;3.20;99.90;;;;;;5056580;28;20059;-88
2021/11/30 10:57:37;;;;;;;0.00;0.00;;;3.20;99.90;;;;;;5074138;28;20158;-87
2021/11/30 11:00:14;;;;;;;0.00;0.00;;;3.10;99.90;;;;;;5056760;28;20052;-89
2021/11/30 11:02:53;;;;;;;0.00;0.00;;;3.10;99.90;;;;;;5056070;28;20135;-87
2021/11/30 11:05:26;;;;;;;0.10;0.10;;;3.10;99.90;;;;;;5056716;28;20052;-86
2021/11/30 11:08:03;;;;;;;0.10;0.10;;;3.10;99.90;;;;;;5056370;28;20072;-86
2021/11/30 11:10:30;;;;;;;0.40;0.10;;;3.00;99.90;;;;;;5056298;28;20310;-89
2021/11/30 11:13:31;;;;;;;0.20;0.05;;;3.10;99.90;;;;;;5055932;28;20587;-86
2021/11/30 11:16:00;;;;;;;0.20;0.20;;;3.00;99.90;;;;;;5051877;28;20139;-86
2021/11/30 11:18:30;;;;;;;0.10;0.10;;;3.00;99.90;;;;;;5055708;28;20110;-87
2021/11/30 11:21:19;;;;;;;0.30;0.20;;;3.00;99.90;;;;;;5056136;28;20080;-88
2021/11/30 11:23:57;;;;;;;2.42;0.08;;;3.10;99.90;;;;;;5055665;28;20467;-87
2021/11/30 11:26:24;;;;;;;0.95;0.10;;;3.00;99.90;;;;;;5056031;28;20077;-88
2021/11/30 11:28:54;;;;;;;1.08;0.00;;;3.10;99.90;;;;;;5055662;28;20139;-85
2021/11/30 11:31:22;;;;;;;0.82;0.30;;;3.00;99.90;;;;;;5055789;28;20048;-86
2021/11/30 11:33:50;;;;;;;0.20;0.10;;;3.00;99.90;;;;;;5056005;28;20106;-86
2021/11/30 11:36:19;;;;;;;0.10;0.10;;;3.00;99.90;;;;;;5055769;28;20147;-86
2021/11/30 11:38:45;;;;;;;1.05;0.10;;;2.90;99.90;;;;;;5055592;28;20063;-87
2021/11/30 11:41:13;;;;;;;4.75;0.60;;;2.90;99.90;;;;;;5055225;28;20048;-86
2021/11/30 11:43:41;;;;;;;0.30;0.17;;;2.90;99.90;;;;;;5055479;28;20390;-87
2021/11/30 11:46:14;;;;;;;0.00;0.00;;;2.90;99.90;;;;;;5055689;28;20135;-85
2021/11/30 11:48:41;;;;;;;0.30;0.00;;;2.90;99.90;;;;;;5054678;28;20048;-85
2021/11/30 11:51:10;;;;;;;0.68;0.10;;;2.90;99.90;;;;;;5055810;28;20052;-86
2021/11/30 11:53:56;;;;;;;1.00;0.10;;;2.90;99.90;;;;;;5055294;28;20052;-85
2021/11/30 11:56:29;;;;;;;0.13;0.10;;;2.90;99.90;;;;;;5055525;28;20468;-86
2021/11/30 11:59:15;;;;;;;0.10;0.10;;;2.90;99.90;;;;;;5055402;28;20060;-86
2021/11/30 12:01:45;;;;;;;0.13;0.10;;;3.00;99.90;;;;;;5055725;28;20070;-86
2021/11/30 12:04:16;;;;;;;0.98;0.90;;;3.00;99.90;;;;;;5043618;28;20436;-85
2021/11/30 12:06:52;;;;;;;0.10;0.10;;;3.00;99.90;;;;;;5049472;28;20048;-85
2021/11/30 12:09:21;;;;;;;0.10;0.10;;;3.00;99.90;;;;;;5055329;28;20053;-86
2021/11/30 12:11:51;;;;;;;1.08;0.10;;;3.10;99.90;;;;;;5055501;28;20048;-84
2021/11/30 12:14:34;;;;;;;1.40;0.10;;;3.10;99.90;;;;;;5055400;28;20493;-85
2021/11/30 12:17:14;;;;;;;0.20;0.20;;;3.20;99.90;;;;;;5055555;28;20052;-86
2021/11/30 12:19:44;;;;;;;1.45;0.17;;;3.30;99.90;;;;;;5055106;28;20488;-86
2021/11/30 12:22:42;;;;;;;0.73;0.40;;;3.30;99.90;;;;;;5054914;28;20044;-86
2021/11/30 12:25:27;;;;;;;0.30;0.13;;;3.30;99.90;;;;;;5049063;28;20048;-86
2021/11/30 12:27:56;;;;;;;0.55;0.10;;;3.40;99.90;;;;;;5054523;28;20052;-85
2021/11/30 12:30:55;;;;;;;0.10;0.10;;;3.50;99.90;;;;;;5054967;28;20059;-84
2021/11/30 12:33:23;;;;;;;0.00;0.00;;;3.50;99.90;;;;;;5072354;28;20048;-84
2021/11/30 12:36:00;;;;;;;2.00;0.17;;;3.60;99.90;;;;;;5072635;28;20135;-85
2021/11/30 12:38:29;;;;;;;0.10;0.10;;;3.60;99.90;;;;;;5054821;28;20048;-85
2021/11/30 12:40:57;;;;;;;0.45;0.30;;;3.70;99.90;;;;;;5067826;28;20041;-86
2021/11/30 12:43:28;;;;;;;0.20;0.20;;;3.70;99.90;;;;;;5046158;28;20074;-86
2021/11/30 12:46:00;;;;;;;0.10;0.10;;;3.80;99.90;;;;;;5055027;28;20058;-84
2021/11/30 12:48:41;;;;;;;1.08;0.28;;;3.80;99.90;;;;;;5072361;28;20041;-86
2021/11/30 12:51:27;;;;;;;0.15;0.10;;;3.80;99.90;;;;;;5054920;28;20086;-86
2021/11/30 12:53:59;;;;;;;2.42;0.10;;;3.90;99.90;;;;;;5055713;28;20048;-85
2021/11/30 12:56:53;;;;;;;0.10;0.10;;;3.90;99.90;;;;;;5058522;28;20100;-87
2021/11/30 12:59:40;;;;;;;0.50;0.30;;;3.90;99.90;;;;;;5058155;28;20052;-86
2021/11/30 13:02:42;;;;;;;4.75;0.82;;;3.90;99.90;;;;;;5058843;28;20048;-85
2021/11/30 13:05:09;;;;;;;0.20;0.20;;;3.90;99.90;;;;;;5058521;28;20048;-87
2021/11/30 13:08:04;;;;;;;0.10;0.10;;;3.90;99.90;;;;;;5058295;28;20467;-85
2021/11/30 13:10:51;;;;;;;0.20;0.03;;;3.90;99.90;;;;;;5058246;28;20087;-86
2021/11/30 13:13:24;;;;;;;0.00;0.00;;;3.90;99.90;;;;;;5058546;28;20045;-86
2021/11/30 13:16:01;;;;;;;0.00;0.00;;;3.90;99.90;;;;;;5057984;28;20502;-86
2021/11/30 13:18:33;;;;;;;0.10;0.00;;;3.90;99.90;;;;;;5075269;28;20049;-87
2021/11/30 13:21:01;;;;;;;2.10;0.40;;;4.00;99.90;;;;;;5075926;28;20499;-86